Terminal Aerodrome Forecast
Issued by NWS

Home | Current Version | Previous Version | Text Only | Print | Product List | Glossary Off
Versions: 1 2 3 4 5 6 7 8 9 10 11 12 13 14 15 16 17 18 19 20 21

000
FTUS43 KTOP 171945 AAA
TAFFOE
TAF AMD
KFOE 171945Z 1720/1818 28007KT P6SM BKN013
      TEMPO 1720/1722 SCT013
     FM180600 24005KT P6SM SCT035=

USA.gov is the U.S. government's official web portal to all federal, state and local government web resources and services.